Decoded Metar for KELZ (WELLSVILLE in NY, USA) (IATA:ELZ) | Meteo·Mobile Aviation Weather
aviador You're here:

KELZ Decoded Metar

WELLSVILLE in NY, USA
Report Time2018-11-14 09:56:00
UTC Time2018-11-14 10:58:58
Flight Rules vfr VFR
Wind300° at 15 Gusting to 24 kt
W.Decomp.*RWY 28: 13.2 kt HW 7.0 kt RCW
W.Rank300° ranks 1
Current wind is above 300° avg. (10.7)
Visibility9999 m
Phenomena:N/A
Clouds:Overcast 039 Hf
Expected CloudBase > 2,000 ft AGL from Temp-Dew spread
Ceiling3,900 ft
Temp-4°C (ISA -15)
Dew Point-9°C (69% RH)
AAT-12.4°C
QNH1025 hPa
Density Alt-52 ft
Elevation2,119 ft
Report Wrong Elevation
Raw Report
KELZ 140956Z AUTO 30015G24KT 10SM OVC039 M04/M09 A3026 RMK AO2 PK
WND 30026/0857 SNE05 SLP273 P0000 T10391094 $=

Extra information for KELZ:More info

Metar Taf Metar & Taf Last 4 Metars F.Rules Stats Wind Profile Meteogram Temp Stats Airport Information Weather charts Add Link Nearby VenuesMetar ALERT Operation Metar Decoded Social comments

AIRNAV info for KELZ